sensor_id;sensor_type;location;lat;lon;timestamp;P1;durP1;ratioP1;P2;durP2;ratioP2
22268;SDS011;11303;50.772;19.670;2023-11-19T00:00:59;42.63;;;23.23;;
22268;SDS011;11303;50.772;19.670;2023-11-19T00:03:01;44.65;;;24.65;;
22268;SDS011;11303;50.772;19.670;2023-11-19T00:05:03;43.63;;;24.55;;
22268;SDS011;11303;50.772;19.670;2023-11-19T00:07:06;40.70;;;21.55;;
22268;SDS011;11303;50.772;19.670;2023-11-19T00:09:09;57.03;;;35.90;;
22268;SDS011;11303;50.772;19.670;2023-11-19T00:11:10;43.17;;;24.73;;
22268;SDS011;11303;50.772;19.670;2023-11-19T00:13:12;43.53;;;24.27;;
22268;SDS011;11303;50.772;19.670;2023-11-19T00:15:14;48.25;;;25.20;;
22268;SDS011;11303;50.772;19.670;2023-11-19T00:17:17;49.60;;;24.70;;
22268;SDS011;11303;50.772;19.670;2023-11-19T00:19:18;51.13;;;27.85;;
22268;SDS011;11303;50.772;19.670;2023-11-19T00:21:20;41.50;;;23.20;;
22268;SDS011;11303;50.772;19.670;2023-11-19T00:23:23;47.97;;;26.38;;
22268;SDS011;11303;50.772;19.670;2023-11-19T00:25:24;41.30;;;23.52;;
22268;SDS011;11303;50.772;19.670;2023-11-19T00:27:26;35.58;;;21.13;;
22268;SDS011;11303;50.772;19.670;2023-11-19T00:29:28;38.65;;;21.08;;
22268;SDS011;11303;50.772;19.670;2023-11-19T00:31:30;32.05;;;20.52;;
22268;SDS011;11303;50.772;19.670;2023-11-19T00:33:32;39.40;;;22.45;;
22268;SDS011;11303;50.772;19.670;2023-11-19T00:35:33;36.28;;;21.23;;
22268;SDS011;11303;50.772;19.670;2023-11-19T00:37:35;35.97;;;21.38;;
22268;SDS011;11303;50.772;19.670;2023-11-19T00:39:37;38.85;;;22.70;;
22268;SDS011;11303;50.772;19.670;2023-11-19T00:41:39;36.95;;;21.27;;
22268;SDS011;11303;50.772;19.670;2023-11-19T00:43:41;40.42;;;23.67;;
22268;SDS011;11303;50.772;19.670;2023-11-19T00:45:43;40.35;;;24.80;;
22268;SDS011;11303;50.772;19.670;2023-11-19T00:47:45;47.75;;;23.38;;
22268;SDS011;11303;50.772;19.670;2023-11-19T00:49:47;41.13;;;22.67;;
22268;SDS011;11303;50.772;19.670;2023-11-19T00:51:52;36.67;;;21.95;;
22268;SDS011;11303;50.772;19.670;2023-11-19T00:53:54;36.83;;;21.42;;
22268;SDS011;11303;50.772;19.670;2023-11-19T00:55:56;39.92;;;22.20;;
22268;SDS011;11303;50.772;19.670;2023-11-19T00:57:58;110.38;;;52.17;;
22268;SDS011;11303;50.772;19.670;2023-11-19T01:00:00;52.42;;;29.17;;
22268;SDS011;11303;50.772;19.670;2023-11-19T01:02:02;74.80;;;37.90;;
22268;SDS011;11303;50.772;19.670;2023-11-19T01:04:05;41.00;;;23.60;;
22268;SDS011;11303;50.772;19.670;2023-11-19T01:06:07;26.88;;;15.15;;
22268;SDS011;11303;50.772;19.670;2023-11-19T01:08:10;47.38;;;25.88;;
22268;SDS011;11303;50.772;19.670;2023-11-19T01:10:12;32.72;;;17.63;;
22268;SDS011;11303;50.772;19.670;2023-11-19T01:12:13;35.80;;;21.20;;
22268;SDS011;11303;50.772;19.670;2023-11-19T01:14:15;36.38;;;21.98;;
22268;SDS011;11303;50.772;19.670;2023-11-19T01:16:19;26.10;;;15.93;;
22268;SDS011;11303;50.772;19.670;2023-11-19T01:18:21;23.63;;;13.93;;
22268;SDS011;11303;50.772;19.670;2023-11-19T01:20:23;20.77;;;13.57;;
22268;SDS011;11303;50.772;19.670;2023-11-19T01:22:25;27.83;;;17.00;;
22268;SDS011;11303;50.772;19.670;2023-11-19T01:24:27;32.03;;;17.40;;
22268;SDS011;11303;50.772;19.670;2023-11-19T01:26:30;34.85;;;18.25;;
22268;SDS011;11303;50.772;19.670;2023-11-19T01:28:32;33.53;;;18.20;;
22268;SDS011;11303;50.772;19.670;2023-11-19T01:30:34;27.58;;;15.90;;
22268;SDS011;11303;50.772;19.670;2023-11-19T01:32:35;28.17;;;16.50;;
22268;SDS011;11303;50.772;19.670;2023-11-19T01:34:38;26.00;;;14.80;;
22268;SDS011;11303;50.772;19.670;2023-11-19T01:36:40;24.83;;;14.05;;
22268;SDS011;11303;50.772;19.670;2023-11-19T01:38:41;24.25;;;14.35;;
22268;SDS011;11303;50.772;19.670;2023-11-19T01:40:43;26.25;;;15.43;;
22268;SDS011;11303;50.772;19.670;2023-11-19T01:42:45;35.13;;;18.10;;
22268;SDS011;11303;50.772;19.670;2023-11-19T01:45:08;27.33;;;16.77;;
22268;SDS011;11303;50.772;19.670;2023-11-19T01:47:10;22.50;;;14.23;;
22268;SDS011;11303;50.772;19.670;2023-11-19T01:49:12;26.55;;;14.95;;
22268;SDS011;11303;50.772;19.670;2023-11-19T01:51:19;30.00;;;16.25;;
22268;SDS011;11303;50.772;19.670;2023-11-19T01:53:23;28.25;;;15.35;;
22268;SDS011;11303;50.772;19.670;2023-11-19T01:55:25;24.70;;;15.07;;
22268;SDS011;11303;50.772;19.670;2023-11-19T01:57:31;27.83;;;16.20;;
22268;SDS011;11303;50.772;19.670;2023-11-19T01:59:33;31.42;;;18.58;;
22268;SDS011;11303;50.772;19.670;2023-11-19T02:01:35;28.17;;;17.08;;
22268;SDS011;11303;50.772;19.670;2023-11-19T02:03:41;28.95;;;15.85;;
22268;SDS011;11303;50.772;19.670;2023-11-19T02:05:44;28.95;;;16.02;;
22268;SDS011;11303;50.772;19.670;2023-11-19T02:07:46;25.17;;;15.70;;
22268;SDS011;11303;50.772;19.670;2023-11-19T02:09:47;26.45;;;14.45;;
22268;SDS011;11303;50.772;19.670;2023-11-19T02:11:49;27.15;;;16.20;;
22268;SDS011;11303;50.772;19.670;2023-11-19T02:13:52;27.30;;;15.68;;
22268;SDS011;11303;50.772;19.670;2023-11-19T02:15:54;29.95;;;16.23;;
22268;SDS011;11303;50.772;19.670;2023-11-19T02:17:56;29.00;;;16.05;;
22268;SDS011;11303;50.772;19.670;2023-11-19T02:19:58;25.48;;;14.07;;
22268;SDS011;11303;50.772;19.670;2023-11-19T02:22:00;24.08;;;13.07;;
22268;SDS011;11303;50.772;19.670;2023-11-19T02:24:06;25.50;;;14.43;;
22268;SDS011;11303;50.772;19.670;2023-11-19T02:28:20;30.77;;;17.38;;
22268;SDS011;11303;50.772;19.670;2023-11-19T02:30:22;18.00;;;10.90;;
22268;SDS011;11303;50.772;19.670;2023-11-19T02:32:30;19.33;;;11.43;;
22268;SDS011;11303;50.772;19.670;2023-11-19T02:34:32;19.33;;;11.85;;
22268;SDS011;11303;50.772;19.670;2023-11-19T02:36:34;24.15;;;13.95;;
22268;SDS011;11303;50.772;19.670;2023-11-19T02:38:36;27.63;;;16.50;;
22268;SDS011;11303;50.772;19.670;2023-11-19T02:40:38;22.92;;;13.90;;
22268;SDS011;11303;50.772;19.670;2023-11-19T02:42:39;23.25;;;13.43;;
22268;SDS011;11303;50.772;19.670;2023-11-19T02:44:44;25.23;;;15.15;;
22268;SDS011;11303;50.772;19.670;2023-11-19T02:46:46;25.83;;;15.25;;
22268;SDS011;11303;50.772;19.670;2023-11-19T02:48:49;27.92;;;15.45;;
22268;SDS011;11303;50.772;19.670;2023-11-19T02:50:51;23.83;;;14.45;;
22268;SDS011;11303;50.772;19.670;2023-11-19T02:52:54;26.65;;;14.20;;
22268;SDS011;11303;50.772;19.670;2023-11-19T02:54:59;31.35;;;18.38;;
22268;SDS011;11303;50.772;19.670;2023-11-19T02:57:01;27.83;;;15.82;;
22268;SDS011;11303;50.772;19.670;2023-11-19T02:59:05;28.85;;;17.23;;
22268;SDS011;11303;50.772;19.670;2023-11-19T03:01:21;24.83;;;16.33;;
22268;SDS011;11303;50.772;19.670;2023-11-19T03:03:30;27.50;;;17.27;;
22268;SDS011;11303;50.772;19.670;2023-11-19T03:05:40;30.27;;;17.67;;
22268;SDS011;11303;50.772;19.670;2023-11-19T03:07:42;25.00;;;14.75;;
22268;SDS011;11303;50.772;19.670;2023-11-19T03:09:47;29.80;;;17.60;;
22268;SDS011;11303;50.772;19.670;2023-11-19T03:11:50;35.78;;;20.05;;
22268;SDS011;11303;50.772;19.670;2023-11-19T03:13:52;40.22;;;23.90;;
22268;SDS011;11303;50.772;19.670;2023-11-19T03:15:54;28.45;;;17.58;;
22268;SDS011;11303;50.772;19.670;2023-11-19T03:17:56;41.15;;;26.65;;
22268;SDS011;11303;50.772;19.670;2023-11-19T03:19:57;36.22;;;20.00;;
22268;SDS011;11303;50.772;19.670;2023-11-19T03:22:00;40.55;;;20.70;;
22268;SDS011;11303;50.772;19.670;2023-11-19T03:24:03;32.42;;;19.13;;
22268;SDS011;11303;50.772;19.670;2023-11-19T03:26:05;39.10;;;22.35;;
22268;SDS011;11303;50.772;19.670;2023-11-19T03:28:07;39.97;;;21.95;;
22268;SDS011;11303;50.772;19.670;2023-11-19T03:30:09;30.00;;;16.70;;
22268;SDS011;11303;50.772;19.670;2023-11-19T03:32:11;26.67;;;17.20;;
22268;SDS011;11303;50.772;19.670;2023-11-19T03:34:13;25.40;;;16.58;;
22268;SDS011;11303;50.772;19.670;2023-11-19T03:36:15;24.52;;;15.20;;
22268;SDS011;11303;50.772;19.670;2023-11-19T03:38:17;27.05;;;16.23;;
22268;SDS011;11303;50.772;19.670;2023-11-19T03:40:18;29.55;;;16.58;;
22268;SDS011;11303;50.772;19.670;2023-11-19T03:42:20;27.60;;;14.55;;
22268;SDS011;11303;50.772;19.670;2023-11-19T03:44:22;29.85;;;16.30;;
22268;SDS011;11303;50.772;19.670;2023-11-19T03:46:23;35.33;;;16.70;;
22268;SDS011;11303;50.772;19.670;2023-11-19T03:48:25;30.55;;;17.13;;
22268;SDS011;11303;50.772;19.670;2023-11-19T03:50:27;29.35;;;18.48;;
22268;SDS011;11303;50.772;19.670;2023-11-19T03:52:29;27.95;;;17.33;;
22268;SDS011;11303;50.772;19.670;2023-11-19T03:54:31;30.17;;;17.15;;
22268;SDS011;11303;50.772;19.670;2023-11-19T03:56:34;27.90;;;17.35;;
22268;SDS011;11303;50.772;19.670;2023-11-19T03:58:35;27.20;;;16.27;;
22268;SDS011;11303;50.772;19.670;2023-11-19T04:00:37;27.63;;;16.38;;
22268;SDS011;11303;50.772;19.670;2023-11-19T04:02:39;31.75;;;17.38;;
22268;SDS011;11303;50.772;19.670;2023-11-19T04:04:41;33.58;;;18.80;;
22268;SDS011;11303;50.772;19.670;2023-11-19T04:06:43;30.80;;;17.30;;
22268;SDS011;11303;50.772;19.670;2023-11-19T04:08:45;31.08;;;16.50;;
22268;SDS011;11303;50.772;19.670;2023-11-19T04:10:47;28.77;;;16.52;;
22268;SDS011;11303;50.772;19.670;2023-11-19T04:12:49;24.98;;;15.38;;
22268;SDS011;11303;50.772;19.670;2023-11-19T04:14:50;27.67;;;15.75;;
22268;SDS011;11303;50.772;19.670;2023-11-19T04:17:02;30.55;;;16.08;;
22268;SDS011;11303;50.772;19.670;2023-11-19T04:19:04;25.27;;;14.75;;
22268;SDS011;11303;50.772;19.670;2023-11-19T04:21:06;28.42;;;16.10;;
22268;SDS011;11303;50.772;19.670;2023-11-19T04:23:08;27.50;;;16.98;;
22268;SDS011;11303;50.772;19.670;2023-11-19T04:25:10;32.10;;;17.58;;
22268;SDS011;11303;50.772;19.670;2023-11-19T04:27:13;30.02;;;17.20;;
22268;SDS011;11303;50.772;19.670;2023-11-19T04:29:15;28.60;;;16.58;;
22268;SDS011;11303;50.772;19.670;2023-11-19T04:31:18;29.83;;;16.55;;
22268;SDS011;11303;50.772;19.670;2023-11-19T04:33:20;28.65;;;15.68;;
22268;SDS011;11303;50.772;19.670;2023-11-19T04:35:22;26.92;;;15.70;;
22268;SDS011;11303;50.772;19.670;2023-11-19T04:37:23;29.17;;;17.05;;
22268;SDS011;11303;50.772;19.670;2023-11-19T04:39:25;32.22;;;16.05;;
22268;SDS011;11303;50.772;19.670;2023-11-19T04:41:28;33.55;;;12.75;;
22268;SDS011;11303;50.772;19.670;2023-11-19T04:43:29;28.00;;;16.00;;
22268;SDS011;11303;50.772;19.670;2023-11-19T04:45:31;32.28;;;17.92;;
22268;SDS011;11303;50.772;19.670;2023-11-19T04:47:33;30.58;;;16.20;;
22268;SDS011;11303;50.772;19.670;2023-11-19T04:49:39;30.70;;;17.77;;
22268;SDS011;11303;50.772;19.670;2023-11-19T04:51:44;31.05;;;18.20;;
22268;SDS011;11303;50.772;19.670;2023-11-19T04:53:49;34.53;;;19.63;;
22268;SDS011;11303;50.772;19.670;2023-11-19T04:55:51;31.90;;;18.70;;
22268;SDS011;11303;50.772;19.670;2023-11-19T04:57:54;36.15;;;18.92;;
22268;SDS011;11303;50.772;19.670;2023-11-19T04:59:55;35.88;;;19.60;;
22268;SDS011;11303;50.772;19.670;2023-11-19T05:01:57;36.55;;;19.67;;
22268;SDS011;11303;50.772;19.670;2023-11-19T05:03:59;35.83;;;19.58;;
22268;SDS011;11303;50.772;19.670;2023-11-19T05:06:01;33.25;;;18.85;;
22268;SDS011;11303;50.772;19.670;2023-11-19T05:08:03;36.95;;;19.73;;
22268;SDS011;11303;50.772;19.670;2023-11-19T05:10:06;34.80;;;17.77;;
22268;SDS011;11303;50.772;19.670;2023-11-19T05:12:08;34.63;;;18.60;;
22268;SDS011;11303;50.772;19.670;2023-11-19T05:14:13;34.28;;;17.67;;
22268;SDS011;11303;50.772;19.670;2023-11-19T05:16:15;35.17;;;18.45;;
22268;SDS011;11303;50.772;19.670;2023-11-19T05:18:19;32.42;;;16.65;;
22268;SDS011;11303;50.772;19.670;2023-11-19T05:20:20;36.10;;;19.48;;
22268;SDS011;11303;50.772;19.670;2023-11-19T05:22:22;36.90;;;18.55;;
22268;SDS011;11303;50.772;19.670;2023-11-19T05:24:24;32.38;;;17.90;;
22268;SDS011;11303;50.772;19.670;2023-11-19T05:26:26;36.58;;;17.73;;
22268;SDS011;11303;50.772;19.670;2023-11-19T05:28:28;39.72;;;21.42;;
22268;SDS011;11303;50.772;19.670;2023-11-19T05:30:30;33.63;;;18.35;;
22268;SDS011;11303;50.772;19.670;2023-11-19T05:32:31;25.80;;;14.40;;
22268;SDS011;11303;50.772;19.670;2023-11-19T05:34:33;34.30;;;17.20;;
22268;SDS011;11303;50.772;19.670;2023-11-19T05:36:35;31.80;;;16.38;;
22268;SDS011;11303;50.772;19.670;2023-11-19T05:38:37;36.17;;;19.55;;
22268;SDS011;11303;50.772;19.670;2023-11-19T05:40:38;40.67;;;18.77;;
22268;SDS011;11303;50.772;19.670;2023-11-19T05:42:41;32.65;;;17.10;;
22268;SDS011;11303;50.772;19.670;2023-11-19T05:44:43;23.10;;;12.60;;
22268;SDS011;11303;50.772;19.670;2023-11-19T05:46:44;27.48;;;13.63;;
22268;SDS011;11303;50.772;19.670;2023-11-19T05:48:46;28.30;;;13.60;;
22268;SDS011;11303;50.772;19.670;2023-11-19T05:50:49;26.02;;;14.32;;
22268;SDS011;11303;50.772;19.670;2023-11-19T05:52:51;26.02;;;13.48;;
22268;SDS011;11303;50.772;19.670;2023-11-19T05:54:54;23.08;;;12.27;;
22268;SDS011;11303;50.772;19.670;2023-11-19T05:56:56;27.08;;;13.32;;
22268;SDS011;11303;50.772;19.670;2023-11-19T05:58:59;26.52;;;15.75;;
22268;SDS011;11303;50.772;19.670;2023-11-19T06:03:10;30.63;;;15.50;;
22268;SDS011;11303;50.772;19.670;2023-11-19T06:05:12;28.08;;;13.88;;
22268;SDS011;11303;50.772;19.670;2023-11-19T06:07:14;27.40;;;15.40;;
22268;SDS011;11303;50.772;19.670;2023-11-19T06:09:16;30.42;;;15.15;;
22268;SDS011;11303;50.772;19.670;2023-11-19T06:11:19;25.27;;;13.93;;
22268;SDS011;11303;50.772;19.670;2023-11-19T06:13:22;28.55;;;14.98;;
22268;SDS011;11303;50.772;19.670;2023-11-19T06:15:26;25.23;;;15.00;;
22268;SDS011;11303;50.772;19.670;2023-11-19T06:17:31;24.65;;;13.93;;
22268;SDS011;11303;50.772;19.670;2023-11-19T06:19:33;27.20;;;15.40;;
22268;SDS011;11303;50.772;19.670;2023-11-19T06:21:36;26.70;;;14.98;;
22268;SDS011;11303;50.772;19.670;2023-11-19T06:23:38;34.95;;;19.25;;
22268;SDS011;11303;50.772;19.670;2023-11-19T06:25:40;28.77;;;17.17;;
22268;SDS011;11303;50.772;19.670;2023-11-19T06:27:42;21.80;;;13.27;;
22268;SDS011;11303;50.772;19.670;2023-11-19T06:29:44;31.10;;;18.13;;
22268;SDS011;11303;50.772;19.670;2023-11-19T06:31:45;23.98;;;13.18;;
22268;SDS011;11303;50.772;19.670;2023-11-19T06:33:50;23.55;;;13.75;;
22268;SDS011;11303;50.772;19.670;2023-11-19T06:35:51;22.42;;;11.95;;
22268;SDS011;11303;50.772;19.670;2023-11-19T06:37:53;19.17;;;11.43;;
22268;SDS011;11303;50.772;19.670;2023-11-19T06:39:56;23.48;;;12.45;;
22268;SDS011;11303;50.772;19.670;2023-11-19T06:41:58;20.55;;;11.95;;
22268;SDS011;11303;50.772;19.670;2023-11-19T06:43:59;17.63;;;11.13;;
22268;SDS011;11303;50.772;19.670;2023-11-19T06:46:01;20.45;;;11.05;;
22268;SDS011;11303;50.772;19.670;2023-11-19T06:48:03;20.48;;;10.70;;
22268;SDS011;11303;50.772;19.670;2023-11-19T06:50:06;22.60;;;11.38;;
22268;SDS011;11303;50.772;19.670;2023-11-19T06:52:08;17.77;;;11.23;;
22268;SDS011;11303;50.772;19.670;2023-11-19T06:54:10;22.35;;;11.80;;
22268;SDS011;11303;50.772;19.670;2023-11-19T06:56:21;22.88;;;13.00;;
22268;SDS011;11303;50.772;19.670;2023-11-19T06:58:24;20.85;;;11.50;;
22268;SDS011;11303;50.772;19.670;2023-11-19T07:00:25;23.30;;;11.98;;
22268;SDS011;11303;50.772;19.670;2023-11-19T07:02:28;20.60;;;11.23;;
22268;SDS011;11303;50.772;19.670;2023-11-19T07:04:30;21.88;;;10.88;;
22268;SDS011;11303;50.772;19.670;2023-11-19T07:06:32;24.33;;;11.95;;
22268;SDS011;11303;50.772;19.670;2023-11-19T07:08:35;22.77;;;12.40;;
22268;SDS011;11303;50.772;19.670;2023-11-19T07:10:38;26.98;;;15.05;;
22268;SDS011;11303;50.772;19.670;2023-11-19T07:12:39;30.80;;;16.90;;
22268;SDS011;11303;50.772;19.670;2023-11-19T07:14:41;24.88;;;13.63;;
22268;SDS011;11303;50.772;19.670;2023-11-19T07:16:43;30.98;;;17.25;;
22268;SDS011;11303;50.772;19.670;2023-11-19T07:18:46;27.75;;;15.80;;
22268;SDS011;11303;50.772;19.670;2023-11-19T07:20:51;23.15;;;14.30;;
22268;SDS011;11303;50.772;19.670;2023-11-19T07:22:53;26.73;;;14.85;;
22268;SDS011;11303;50.772;19.670;2023-11-19T07:24:58;24.92;;;13.02;;
22268;SDS011;11303;50.772;19.670;2023-11-19T07:27:00;30.15;;;15.05;;
22268;SDS011;11303;50.772;19.670;2023-11-19T07:29:04;24.73;;;13.98;;
22268;SDS011;11303;50.772;19.670;2023-11-19T07:31:09;25.30;;;13.35;;
22268;SDS011;11303;50.772;19.670;2023-11-19T07:33:10;24.42;;;11.50;;
22268;SDS011;11303;50.772;19.670;2023-11-19T07:35:13;24.35;;;13.77;;
22268;SDS011;11303;50.772;19.670;2023-11-19T07:37:15;29.17;;;14.82;;
22268;SDS011;11303;50.772;19.670;2023-11-19T07:39:18;34.45;;;18.77;;
22268;SDS011;11303;50.772;19.670;2023-11-19T07:41:22;30.17;;;14.20;;
22268;SDS011;11303;50.772;19.670;2023-11-19T07:45:54;28.92;;;14.40;;
22268;SDS011;11303;50.772;19.670;2023-11-19T07:47:59;27.42;;;15.45;;
22268;SDS011;11303;50.772;19.670;2023-11-19T07:50:02;22.20;;;13.13;;
22268;SDS011;11303;50.772;19.670;2023-11-19T07:52:05;30.30;;;16.30;;
22268;SDS011;11303;50.772;19.670;2023-11-19T07:54:22;26.75;;;14.00;;
22268;SDS011;11303;50.772;19.670;2023-11-19T07:56:23;29.88;;;16.00;;
22268;SDS011;11303;50.772;19.670;2023-11-19T07:58:26;32.60;;;14.65;;
22268;SDS011;11303;50.772;19.670;2023-11-19T08:00:31;40.92;;;19.42;;
22268;SDS011;11303;50.772;19.670;2023-11-19T08:02:41;36.03;;;16.38;;
22268;SDS011;11303;50.772;19.670;2023-11-19T08:04:43;30.42;;;13.45;;
22268;SDS011;11303;50.772;19.670;2023-11-19T08:06:47;43.30;;;17.45;;
22268;SDS011;11303;50.772;19.670;2023-11-19T08:08:49;102.57;;;35.40;;
22268;SDS011;11303;50.772;19.670;2023-11-19T08:10:51;87.82;;;30.83;;
22268;SDS011;11303;50.772;19.670;2023-11-19T08:12:53;103.05;;;39.10;;
22268;SDS011;11303;50.772;19.670;2023-11-19T08:14:55;117.28;;;41.55;;
22268;SDS011;11303;50.772;19.670;2023-11-19T08:16:57;104.40;;;31.83;;
22268;SDS011;11303;50.772;19.670;2023-11-19T08:18:59;57.70;;;23.67;;
22268;SDS011;11303;50.772;19.670;2023-11-19T08:21:01;34.72;;;15.63;;
22268;SDS011;11303;50.772;19.670;2023-11-19T08:23:02;50.08;;;19.98;;
22268;SDS011;11303;50.772;19.670;2023-11-19T08:25:08;73.25;;;29.13;;
22268;SDS011;11303;50.772;19.670;2023-11-19T08:27:10;65.28;;;24.65;;
22268;SDS011;11303;50.772;19.670;2023-11-19T08:29:12;55.20;;;22.73;;
22268;SDS011;11303;50.772;19.670;2023-11-19T08:31:15;64.35;;;26.80;;
22268;SDS011;11303;50.772;19.670;2023-11-19T08:33:16;55.03;;;21.73;;
22268;SDS011;11303;50.772;19.670;2023-11-19T08:35:18;46.35;;;17.88;;
22268;SDS011;11303;50.772;19.670;2023-11-19T08:37:20;33.85;;;13.23;;
22268;SDS011;11303;50.772;19.670;2023-11-19T08:39:25;36.92;;;16.08;;
22268;SDS011;11303;50.772;19.670;2023-11-19T08:41:26;25.60;;;10.48;;
22268;SDS011;11303;50.772;19.670;2023-11-19T08:43:28;41.30;;;19.50;;
22268;SDS011;11303;50.772;19.670;2023-11-19T08:45:32;41.38;;;19.45;;
22268;SDS011;11303;50.772;19.670;2023-11-19T08:47:34;25.85;;;14.15;;
22268;SDS011;11303;50.772;19.670;2023-11-19T08:49:38;39.85;;;20.00;;
22268;SDS011;11303;50.772;19.670;2023-11-19T08:51:40;30.95;;;14.82;;
22268;SDS011;11303;50.772;19.670;2023-11-19T08:53:43;33.05;;;15.50;;
22268;SDS011;11303;50.772;19.670;2023-11-19T08:55:44;32.65;;;17.25;;
22268;SDS011;11303;50.772;19.670;2023-11-19T08:57:46;39.45;;;20.02;;
22268;SDS011;11303;50.772;19.670;2023-11-19T09:00:00;30.75;;;16.00;;
22268;SDS011;11303;50.772;19.670;2023-11-19T09:02:02;32.30;;;15.90;;
22268;SDS011;11303;50.772;19.670;2023-11-19T09:04:04;33.83;;;19.02;;
22268;SDS011;11303;50.772;19.670;2023-11-19T09:06:08;35.78;;;17.33;;
22268;SDS011;11303;50.772;19.670;2023-11-19T09:08:10;35.67;;;17.15;;
22268;SDS011;11303;50.772;19.670;2023-11-19T09:10:13;28.70;;;14.00;;
22268;SDS011;11303;50.772;19.670;2023-11-19T09:12:15;34.45;;;16.27;;
22268;SDS011;11303;50.772;19.670;2023-11-19T09:14:16;33.67;;;16.25;;
22268;SDS011;11303;50.772;19.670;2023-11-19T09:16:19;22.65;;;11.32;;
22268;SDS011;11303;50.772;19.670;2023-11-19T09:18:21;36.85;;;16.38;;
22268;SDS011;11303;50.772;19.670;2023-11-19T09:20:23;36.60;;;19.55;;
22268;SDS011;11303;50.772;19.670;2023-11-19T09:22:25;25.00;;;12.90;;
22268;SDS011;11303;50.772;19.670;2023-11-19T09:24:26;19.63;;;9.90;;
22268;SDS011;11303;50.772;19.670;2023-11-19T09:26:28;34.55;;;17.25;;
22268;SDS011;11303;50.772;19.670;2023-11-19T09:28:30;29.08;;;15.68;;
22268;SDS011;11303;50.772;19.670;2023-11-19T09:30:32;34.20;;;17.33;;
22268;SDS011;11303;50.772;19.670;2023-11-19T09:32:42;48.25;;;19.70;;
22268;SDS011;11303;50.772;19.670;2023-11-19T09:34:44;37.55;;;17.02;;
22268;SDS011;11303;50.772;19.670;2023-11-19T09:36:48;33.70;;;14.85;;
22268;SDS011;11303;50.772;19.670;2023-11-19T09:38:49;23.85;;;10.70;;
22268;SDS011;11303;50.772;19.670;2023-11-19T09:40:51;37.22;;;19.27;;
22268;SDS011;11303;50.772;19.670;2023-11-19T09:42:53;31.33;;;16.45;;
22268;SDS011;11303;50.772;19.670;2023-11-19T09:44:55;26.08;;;14.57;;
22268;SDS011;11303;50.772;19.670;2023-11-19T09:46:57;22.02;;;10.70;;
22268;SDS011;11303;50.772;19.670;2023-11-19T09:49:00;36.53;;;18.67;;
22268;SDS011;11303;50.772;19.670;2023-11-19T09:51:04;24.33;;;12.95;;
22268;SDS011;11303;50.772;19.670;2023-11-19T09:53:06;34.00;;;17.20;;
22268;SDS011;11303;50.772;19.670;2023-11-19T09:55:08;28.98;;;16.60;;
22268;SDS011;11303;50.772;19.670;2023-11-19T09:57:10;40.10;;;20.42;;
22268;SDS011;11303;50.772;19.670;2023-11-19T09:59:14;22.33;;;10.90;;
22268;SDS011;11303;50.772;19.670;2023-11-19T10:01:16;35.03;;;17.58;;
22268;SDS011;11303;50.772;19.670;2023-11-19T10:03:35;30.13;;;16.13;;
22268;SDS011;11303;50.772;19.670;2023-11-19T10:05:39;32.10;;;16.38;;
22268;SDS011;11303;50.772;19.670;2023-11-19T10:07:42;31.77;;;17.00;;
22268;SDS011;11303;50.772;19.670;2023-11-19T10:09:46;35.47;;;19.60;;
22268;SDS011;11303;50.772;19.670;2023-11-19T10:11:49;23.75;;;12.65;;
22268;SDS011;11303;50.772;19.670;2023-11-19T10:13:51;28.10;;;15.02;;
22268;SDS011;11303;50.772;19.670;2023-11-19T10:15:55;33.55;;;17.75;;
22268;SDS011;11303;50.772;19.670;2023-11-19T10:17:58;31.58;;;15.73;;
22268;SDS011;11303;50.772;19.670;2023-11-19T10:20:01;28.30;;;15.82;;
22268;SDS011;11303;50.772;19.670;2023-11-19T10:22:05;32.30;;;19.02;;
22268;SDS011;11303;50.772;19.670;2023-11-19T10:24:07;32.63;;;16.50;;
22268;SDS011;11303;50.772;19.670;2023-11-19T10:26:09;29.60;;;14.73;;
22268;SDS011;11303;50.772;19.670;2023-11-19T10:28:11;24.83;;;13.02;;
22268;SDS011;11303;50.772;19.670;2023-11-19T10:30:29;18.58;;;9.02;;
22268;SDS011;11303;50.772;19.670;2023-11-19T10:32:31;30.45;;;16.55;;
22268;SDS011;11303;50.772;19.670;2023-11-19T10:34:34;28.65;;;16.08;;
22268;SDS011;11303;50.772;19.670;2023-11-19T10:36:38;36.47;;;19.52;;
22268;SDS011;11303;50.772;19.670;2023-11-19T10:38:53;31.50;;;17.02;;
22268;SDS011;11303;50.772;19.670;2023-11-19T10:40:58;22.45;;;13.10;;
22268;SDS011;11303;50.772;19.670;2023-11-19T10:43:03;22.60;;;13.60;;
22268;SDS011;11303;50.772;19.670;2023-11-19T10:45:05;25.92;;;14.23;;
22268;SDS011;11303;50.772;19.670;2023-11-19T10:47:23;25.42;;;14.15;;
22268;SDS011;11303;50.772;19.670;2023-11-19T10:49:29;21.90;;;11.50;;
22268;SDS011;11303;50.772;19.670;2023-11-19T10:51:34;27.42;;;15.18;;
22268;SDS011;11303;50.772;19.670;2023-11-19T10:53:37;24.23;;;14.50;;
22268;SDS011;11303;50.772;19.670;2023-11-19T10:55:40;27.55;;;14.77;;
22268;SDS011;11303;50.772;19.670;2023-11-19T10:57:43;28.45;;;13.70;;
22268;SDS011;11303;50.772;19.670;2023-11-19T10:59:46;23.23;;;12.38;;
22268;SDS011;11303;50.772;19.670;2023-11-19T11:01:54;21.75;;;12.00;;
22268;SDS011;11303;50.772;19.670;2023-11-19T11:03:58;25.45;;;13.65;;
22268;SDS011;11303;50.772;19.670;2023-11-19T11:06:01;25.65;;;13.32;;
22268;SDS011;11303;50.772;19.670;2023-11-19T11:08:06;32.58;;;16.38;;
22268;SDS011;11303;50.772;19.670;2023-11-19T11:10:08;52.00;;;22.30;;
22268;SDS011;11303;50.772;19.670;2023-11-19T11:12:11;46.38;;;22.17;;
22268;SDS011;11303;50.772;19.670;2023-11-19T11:14:13;25.33;;;11.82;;
22268;SDS011;11303;50.772;19.670;2023-11-19T11:16:18;30.48;;;16.70;;
22268;SDS011;11303;50.772;19.670;2023-11-19T11:18:21;31.77;;;16.23;;
22268;SDS011;11303;50.772;19.670;2023-11-19T11:20:24;36.55;;;15.93;;
22268;SDS011;11303;50.772;19.670;2023-11-19T11:22:27;30.25;;;15.35;;
22268;SDS011;11303;50.772;19.670;2023-11-19T11:24:47;18.67;;;9.70;;
22268;SDS011;11303;50.772;19.670;2023-11-19T11:34:07;36.90;;;17.10;;
22268;SDS011;11303;50.772;19.670;2023-11-19T11:36:13;33.05;;;16.48;;
22268;SDS011;11303;50.772;19.670;2023-11-19T11:38:21;39.95;;;20.02;;
22268;SDS011;11303;50.772;19.670;2023-11-19T11:40:25;41.75;;;18.85;;
22268;SDS011;11303;50.772;19.670;2023-11-19T11:42:33;38.00;;;19.42;;
22268;SDS011;11303;50.772;19.670;2023-11-19T11:47:12;43.42;;;22.50;;
22268;SDS011;11303;50.772;19.670;2023-11-19T11:49:14;47.10;;;24.70;;
22268;SDS011;11303;50.772;19.670;2023-11-19T11:51:17;50.72;;;21.05;;
22268;SDS011;11303;50.772;19.670;2023-11-19T11:53:22;46.15;;;20.95;;
22268;SDS011;11303;50.772;19.670;2023-11-19T11:57:37;50.05;;;23.33;;
22268;SDS011;11303;50.772;19.670;2023-11-19T11:59:49;64.60;;;25.08;;
22268;SDS011;11303;50.772;19.670;2023-11-19T12:01:58;49.03;;;24.70;;
22268;SDS011;11303;50.772;19.670;2023-11-19T12:04:00;51.03;;;24.73;;
22268;SDS011;11303;50.772;19.670;2023-11-19T12:06:02;45.08;;;22.05;;
22268;SDS011;11303;50.772;19.670;2023-11-19T12:08:05;44.22;;;20.27;;